EBLG/LGG METAR and TAF weather

Enter ICAO airport designator
Station Type Date Time Source
EBLG METAR 2018/10/21 05:20 UTC NOAA

EBLG 210520Z 15005KT 3800 BR NSC 05/04 Q1029 TEMPO 1200 BCFG


Station Type Date Time Source
EBLG Decoded METAR 2018/10/21 05:20 UTC NOAA

Bierset, Belgium (EBLG) 50-39N 005-27E 178M
Oct 21, 2018 - 01:20 AM EDT / 2018.10.21 0520 UTC
Wind: from the SSE (150 degrees) at 6 MPH (5 KT):0
Visibility: 2 mile(s):0
Weather: mist
Temperature: 41 F (5 C)
Dew Point: 39 F (4 C)
Relative Humidity: 93%
Pressure (altimeter): 30.39 in. Hg (1029 hPa)
ob: EBLG 210520Z 15005KT 3800 BR NSC 05/04 Q1029 TEMPO 1200 BCFG
cycle: 5

Station Type Date Time Source
EBLG TAF 2018/10/21 06:27 UTC NOAA

TAF EBLG 210510Z 2106/2212 15003KT 2500 BR NSC PROB30
TEMPO 2106/2108 1200 BCFG
BECMG 2108/2110 9999 NSW
BECMG 2206/2208 02010KT BKN008
TEMPO 2207/2212 1400 DZ BKN002


Example: see airport list